Terminal Aerodrome Forecast
Issued by NWS North Platte, NE

Home | Current Version | Previous Version | Text Only | Print | Product List | Glossary On
Versions: 1 2 3 4 5 6 7 8 9 10 11 12 13 14 15 16 17 18
000
FTUS43 KLBF 030900 AAC
TAFVTN
TAF AMD
KVTN 030943Z 0310/0406 34022G34KT 3SM -SN BR OVC015
      TEMPO 0310/0314 1SM -SN BR OVC010
     FM031600 34024G34KT P6SM -SN OVC015
     FM032100 34018G29KT P6SM SCT015 BKN250=

USA.gov is the U.S. government's official web portal to all federal, state and local government web resources and services.